Buffalo, IN (47925)

2:30 PM EDT on July 24, 2014 (GMT -0400)
Bluewater Drive (KINMONTI6) Elev 623 ft | 40.76 °N, 86.75 °W | Change Station

Current weather conditions updated 3 minutes ago

Mostly Cloudy
Mostly Cloudy
76.1 °F
Feels Like 78 °F
N
0.0
Wind Variable Wind from South

Today is forecast to be nearly the same temperature as yesterday.

Today
High -- | Low -- °F
--% Chance of Precip.
Yesterday
High -- | Low -- °F
Precip. -- in
6:35 AM 9:10 PM
Waning Crescent, 4% visible
Pressure 30.12 in
Visibility 10.0 miles
Clouds Mostly Cloudy 4900 ft
Heat Index 78 °F
Dew Point 67 °F
Humidity 73%
Rainfall 0.00 in
Snow Depth Not available.
UV 6 out of 12
Pollen 6.60 out of 12
Air Quality Not available.
Flu Activity Not available.
METAR KGGP 241815Z AUTO 02005KT 10SM BKN049 22/11 A3012 RMK AO2

More Conditions Fewer Conditions

Pressure 30.12 in
Visibility 10.0 miles
Clouds Mostly Cloudy 4900 ft
Heat Index 78 °F
Dew Point 67 °F
Humidity 73%
Rainfall 0.00 in
Snow Depth Not available.
UV 6 out of 12
Pollen 6.60 out of 12
Air Quality Not available.
Flu Activity Not available.
METAR KGGP 241815Z AUTO 02005KT 10SM BKN049 22/11 A3012 RMK AO2

More Conditions Fewer Conditions

10-Day Weather Forecast

Almanac

Astronomy

Jul. 24, 2014 Rise Set
Actual Time 6:35 AM EDT 9:10 PM EDT
Civil Twilight 6:04 AM EDT 9:42 PM EDT
Nautical Twilight 5:24 AM EDT 10:21 PM EDT
Astronomical Twilight 4:40 AM EDT 11:05 PM EDT
Moon 4:43 AM EDT 7:25 PM EDT
Length of Visible Light 15h 38m
Length of Day
14h 34m
Tomorrow will be 1m 48s shorter.
Waning Crescent, 4% of the Moon is Illuminated
Today
Waning Crescent
Jul 26
New
Aug 3
First Quarter
Aug 10
Full
Aug 17
Last Quarter

Today's Extremes

State Highs State Lows

Community

WunderPhotos

Upload Photos

1,737,089 photos uploaded!

Nearby

Snow Depth

Station Depth Elevation
No new snow has been reported.

Earthquake Activity

City Distance Mag. Time & Date
No recent earthquake activity has been reported nearby.
Minimum magnitude displayed is 2.5.

Coastal Water Temperatures

Place Temperature
No Stations Reporting

Nearby Weather Stations

Station Location Temp. Heat Index Dew Point Humidity Wind Precip. Elev Updated Type
Bluewater Drive, Monticello, IN 76.1 °F 78 °F 67 °F 73% South  at  0.0 mph - / hr 623 ft 2:26 PM EDT Normal
East of Town, North Judson, IN 75.0 °F 78 °F 57 °F 53% NNE  at  4.0 mph 0.00 in / hr 700 ft 1:30 PM CDT Normal
Windsor Forest, Logansport, IN 73.8 °F 77 °F 59 °F 59% ESE  at  5.8 mph 0.00 in / hr 669 ft 2:30 PM EDT Rapid Fire

Show More Stations Show Fewer Stations